sensor_id;sensor_type;location;lat;lon;timestamp;P1;durP1;ratioP1;P2;durP2;ratioP2
61252;SDS011;47127;47.516;8.596;2022-08-01T00:00:30;3.72;;;2.20;;
61252;SDS011;47127;47.516;8.596;2022-08-01T00:02:56;4.13;;;2.10;;
61252;SDS011;47127;47.516;8.596;2022-08-01T00:05:22;5.22;;;2.30;;
61252;SDS011;47127;47.516;8.596;2022-08-01T00:07:47;5.53;;;2.38;;
61252;SDS011;47127;47.516;8.596;2022-08-01T00:10:14;3.65;;;1.98;;
61252;SDS011;47127;47.516;8.596;2022-08-01T00:12:41;4.97;;;2.13;;
61252;SDS011;47127;47.516;8.596;2022-08-01T00:15:08;4.38;;;2.38;;
61252;SDS011;47127;47.516;8.596;2022-08-01T00:17:35;4.32;;;2.15;;
61252;SDS011;47127;47.516;8.596;2022-08-01T00:20:02;4.20;;;2.10;;
61252;SDS011;47127;47.516;8.596;2022-08-01T00:22:30;4.70;;;2.10;;
61252;SDS011;47127;47.516;8.596;2022-08-01T00:24:56;4.70;;;2.60;;
61252;SDS011;47127;47.516;8.596;2022-08-01T00:27:22;3.22;;;2.03;;
61252;SDS011;47127;47.516;8.596;2022-08-01T00:29:47;3.67;;;2.17;;
61252;SDS011;47127;47.516;8.596;2022-08-01T00:32:13;3.85;;;2.03;;
61252;SDS011;47127;47.516;8.596;2022-08-01T00:34:38;3.22;;;1.92;;
61252;SDS011;47127;47.516;8.596;2022-08-01T00:37:04;5.63;;;2.50;;
61252;SDS011;47127;47.516;8.596;2022-08-01T00:39:29;3.05;;;2.05;;
61252;SDS011;47127;47.516;8.596;2022-08-01T00:41:57;3.00;;;1.90;;
61252;SDS011;47127;47.516;8.596;2022-08-01T00:44:23;4.38;;;2.60;;
61252;SDS011;47127;47.516;8.596;2022-08-01T00:46:50;10.05;;;2.10;;
61252;SDS011;47127;47.516;8.596;2022-08-01T00:49:16;5.22;;;2.33;;
61252;SDS011;47127;47.516;8.596;2022-08-01T00:51:41;7.35;;;2.50;;
61252;SDS011;47127;47.516;8.596;2022-08-01T00:54:07;3.08;;;2.10;;
61252;SDS011;47127;47.516;8.596;2022-08-01T00:56:33;4.60;;;2.30;;
61252;SDS011;47127;47.516;8.596;2022-08-01T00:59:00;4.15;;;2.30;;
61252;SDS011;47127;47.516;8.596;2022-08-01T01:01:28;4.22;;;2.20;;
61252;SDS011;47127;47.516;8.596;2022-08-01T01:03:54;4.93;;;2.20;;
61252;SDS011;47127;47.516;8.596;2022-08-01T01:11:48;4.00;;;2.47;;
61252;SDS011;47127;47.516;8.596;2022-08-01T01:14:39;4.88;;;2.25;;
61252;SDS011;47127;47.516;8.596;2022-08-01T01:17:20;5.47;;;2.50;;
61252;SDS011;47127;47.516;8.596;2022-08-01T01:19:50;6.18;;;2.60;;
61252;SDS011;47127;47.516;8.596;2022-08-01T01:22:22;3.63;;;2.25;;
61252;SDS011;47127;47.516;8.596;2022-08-01T01:30:31;4.72;;;2.45;;
61252;SDS011;47127;47.516;8.596;2022-08-01T01:33:00;3.88;;;2.00;;
61252;SDS011;47127;47.516;8.596;2022-08-01T01:35:29;5.07;;;2.33;;
61252;SDS011;47127;47.516;8.596;2022-08-01T01:38:00;3.80;;;2.17;;
61252;SDS011;47127;47.516;8.596;2022-08-01T01:40:29;4.30;;;2.35;;
61252;SDS011;47127;47.516;8.596;2022-08-01T01:42:56;5.20;;;2.58;;
61252;SDS011;47127;47.516;8.596;2022-08-01T01:45:25;4.93;;;2.33;;
61252;SDS011;47127;47.516;8.596;2022-08-01T01:47:52;5.18;;;2.30;;
61252;SDS011;47127;47.516;8.596;2022-08-01T01:50:19;6.93;;;2.72;;
61252;SDS011;47127;47.516;8.596;2022-08-01T01:52:46;3.03;;;2.00;;
61252;SDS011;47127;47.516;8.596;2022-08-01T01:55:13;7.15;;;2.25;;
61252;SDS011;47127;47.516;8.596;2022-08-01T01:57:41;6.65;;;2.50;;
61252;SDS011;47127;47.516;8.596;2022-08-01T02:00:09;4.80;;;2.30;;
61252;SDS011;47127;47.516;8.596;2022-08-01T02:02:36;5.68;;;2.55;;
61252;SDS011;47127;47.516;8.596;2022-08-01T02:05:04;5.55;;;2.58;;
61252;SDS011;47127;47.516;8.596;2022-08-01T02:07:31;4.20;;;2.22;;
61252;SDS011;47127;47.516;8.596;2022-08-01T02:09:58;3.35;;;1.98;;
61252;SDS011;47127;47.516;8.596;2022-08-01T02:12:26;4.68;;;2.38;;
61252;SDS011;47127;47.516;8.596;2022-08-01T02:14:54;3.85;;;2.10;;
61252;SDS011;47127;47.516;8.596;2022-08-01T02:17:21;3.25;;;2.28;;
61252;SDS011;47127;47.516;8.596;2022-08-01T02:19:49;2.50;;;1.88;;
61252;SDS011;47127;47.516;8.596;2022-08-01T02:22:34;6.15;;;2.58;;
61252;SDS011;47127;47.516;8.596;2022-08-01T02:25:24;3.65;;;2.10;;
61252;SDS011;47127;47.516;8.596;2022-08-01T02:31:04;4.22;;;2.28;;
61252;SDS011;47127;47.516;8.596;2022-08-01T02:33:37;6.68;;;2.25;;
61252;SDS011;47127;47.516;8.596;2022-08-01T02:36:04;5.05;;;2.30;;
61252;SDS011;47127;47.516;8.596;2022-08-01T02:38:32;4.57;;;2.40;;
61252;SDS011;47127;47.516;8.596;2022-08-01T02:41:03;5.85;;;2.30;;
61252;SDS011;47127;47.516;8.596;2022-08-01T02:43:31;9.63;;;2.53;;
61252;SDS011;47127;47.516;8.596;2022-08-01T02:46:00;3.75;;;2.30;;
61252;SDS011;47127;47.516;8.596;2022-08-01T02:48:27;7.47;;;2.47;;
61252;SDS011;47127;47.516;8.596;2022-08-01T02:50:57;4.68;;;2.20;;
61252;SDS011;47127;47.516;8.596;2022-08-01T02:53:25;5.40;;;2.88;;
61252;SDS011;47127;47.516;8.596;2022-08-01T02:55:54;8.38;;;2.63;;
61252;SDS011;47127;47.516;8.596;2022-08-01T02:58:22;6.25;;;2.58;;
61252;SDS011;47127;47.516;8.596;2022-08-01T03:00:49;5.38;;;2.20;;
61252;SDS011;47127;47.516;8.596;2022-08-01T03:03:15;5.18;;;2.08;;
61252;SDS011;47127;47.516;8.596;2022-08-01T03:05:41;5.47;;;2.53;;
61252;SDS011;47127;47.516;8.596;2022-08-01T03:08:09;3.03;;;2.10;;
61252;SDS011;47127;47.516;8.596;2022-08-01T03:10:36;3.40;;;1.98;;
61252;SDS011;47127;47.516;8.596;2022-08-01T03:13:05;2.50;;;1.90;;
61252;SDS011;47127;47.516;8.596;2022-08-01T03:15:33;3.40;;;2.15;;
61252;SDS011;47127;47.516;8.596;2022-08-01T03:18:02;2.83;;;1.90;;
61252;SDS011;47127;47.516;8.596;2022-08-01T03:20:31;3.28;;;1.77;;
61252;SDS011;47127;47.516;8.596;2022-08-01T03:22:59;5.40;;;2.08;;
61252;SDS011;47127;47.516;8.596;2022-08-01T03:25:28;3.40;;;1.90;;
61252;SDS011;47127;47.516;8.596;2022-08-01T03:27:56;4.38;;;2.15;;
61252;SDS011;47127;47.516;8.596;2022-08-01T03:30:26;5.15;;;1.80;;
61252;SDS011;47127;47.516;8.596;2022-08-01T03:32:53;1.95;;;1.60;;
61252;SDS011;47127;47.516;8.596;2022-08-01T03:35:20;2.88;;;2.00;;
61252;SDS011;47127;47.516;8.596;2022-08-01T03:37:50;5.53;;;2.00;;
61252;SDS011;47127;47.516;8.596;2022-08-01T03:40:28;4.95;;;2.10;;
61252;SDS011;47127;47.516;8.596;2022-08-01T03:43:04;4.35;;;2.47;;
61252;SDS011;47127;47.516;8.596;2022-08-01T03:45:34;4.55;;;2.08;;
61252;SDS011;47127;47.516;8.596;2022-08-01T03:48:05;3.97;;;1.73;;
61252;SDS011;47127;47.516;8.596;2022-08-01T03:50:35;5.43;;;2.13;;
61252;SDS011;47127;47.516;8.596;2022-08-01T03:53:04;5.13;;;2.17;;
61252;SDS011;47127;47.516;8.596;2022-08-01T03:55:32;5.97;;;2.00;;
61252;SDS011;47127;47.516;8.596;2022-08-01T03:57:59;3.50;;;1.80;;
61252;SDS011;47127;47.516;8.596;2022-08-01T04:00:25;3.83;;;2.00;;
61252;SDS011;47127;47.516;8.596;2022-08-01T04:02:52;4.65;;;2.00;;
61252;SDS011;47127;47.516;8.596;2022-08-01T04:05:20;4.82;;;1.90;;
61252;SDS011;47127;47.516;8.596;2022-08-01T04:07:49;4.80;;;1.90;;
61252;SDS011;47127;47.516;8.596;2022-08-01T04:10:22;3.33;;;1.90;;
61252;SDS011;47127;47.516;8.596;2022-08-01T04:12:48;3.35;;;1.73;;
61252;SDS011;47127;47.516;8.596;2022-08-01T04:15:14;3.58;;;1.95;;
61252;SDS011;47127;47.516;8.596;2022-08-01T04:17:39;3.10;;;1.90;;
61252;SDS011;47127;47.516;8.596;2022-08-01T04:20:05;6.88;;;2.67;;
61252;SDS011;47127;47.516;8.596;2022-08-01T04:22:31;8.75;;;2.53;;
61252;SDS011;47127;47.516;8.596;2022-08-01T04:24:58;4.13;;;2.00;;
61252;SDS011;47127;47.516;8.596;2022-08-01T04:27:27;3.78;;;2.05;;
61252;SDS011;47127;47.516;8.596;2022-08-01T04:29:56;3.42;;;2.10;;
61252;SDS011;47127;47.516;8.596;2022-08-01T04:32:24;4.00;;;2.38;;
61252;SDS011;47127;47.516;8.596;2022-08-01T04:34:52;4.05;;;2.70;;
61252;SDS011;47127;47.516;8.596;2022-08-01T04:37:22;3.30;;;2.35;;
61252;SDS011;47127;47.516;8.596;2022-08-01T04:39:48;5.00;;;2.67;;
61252;SDS011;47127;47.516;8.596;2022-08-01T04:42:16;6.07;;;2.50;;
61252;SDS011;47127;47.516;8.596;2022-08-01T04:44:43;5.82;;;2.20;;
61252;SDS011;47127;47.516;8.596;2022-08-01T04:47:09;7.50;;;2.92;;
61252;SDS011;47127;47.516;8.596;2022-08-01T04:49:35;4.85;;;2.63;;
61252;SDS011;47127;47.516;8.596;2022-08-01T04:52:03;4.47;;;2.67;;
61252;SDS011;47127;47.516;8.596;2022-08-01T04:54:31;4.85;;;2.78;;
61252;SDS011;47127;47.516;8.596;2022-08-01T04:56:58;7.55;;;2.67;;
61252;SDS011;47127;47.516;8.596;2022-08-01T04:59:28;5.82;;;2.75;;
61252;SDS011;47127;47.516;8.596;2022-08-01T05:02:08;6.43;;;3.15;;
61252;SDS011;47127;47.516;8.596;2022-08-01T05:04:35;3.30;;;2.53;;
61252;SDS011;47127;47.516;8.596;2022-08-01T05:07:02;3.95;;;2.67;;
61252;SDS011;47127;47.516;8.596;2022-08-01T05:09:29;4.35;;;3.00;;
61252;SDS011;47127;47.516;8.596;2022-08-01T05:11:55;5.55;;;3.38;;
61252;SDS011;47127;47.516;8.596;2022-08-01T05:14:23;5.50;;;2.80;;
61252;SDS011;47127;47.516;8.596;2022-08-01T05:16:52;4.28;;;2.63;;
61252;SDS011;47127;47.516;8.596;2022-08-01T05:19:18;7.22;;;2.83;;
61252;SDS011;47127;47.516;8.596;2022-08-01T05:21:44;7.47;;;2.70;;
61252;SDS011;47127;47.516;8.596;2022-08-01T05:24:09;4.88;;;2.70;;
61252;SDS011;47127;47.516;8.596;2022-08-01T05:26:35;5.13;;;2.63;;
61252;SDS011;47127;47.516;8.596;2022-08-01T05:29:01;7.63;;;3.03;;
61252;SDS011;47127;47.516;8.596;2022-08-01T05:31:27;5.85;;;2.90;;
61252;SDS011;47127;47.516;8.596;2022-08-01T05:33:53;4.95;;;2.85;;
61252;SDS011;47127;47.516;8.596;2022-08-01T05:36:18;6.15;;;3.20;;
61252;SDS011;47127;47.516;8.596;2022-08-01T05:38:44;4.18;;;2.72;;
61252;SDS011;47127;47.516;8.596;2022-08-01T05:41:10;4.53;;;2.75;;
61252;SDS011;47127;47.516;8.596;2022-08-01T05:43:36;3.58;;;2.42;;
61252;SDS011;47127;47.516;8.596;2022-08-01T05:46:01;6.85;;;2.80;;
61252;SDS011;47127;47.516;8.596;2022-08-01T05:48:27;4.10;;;2.60;;
61252;SDS011;47127;47.516;8.596;2022-08-01T05:50:53;6.38;;;2.85;;
61252;SDS011;47127;47.516;8.596;2022-08-01T05:53:19;5.13;;;2.90;;
61252;SDS011;47127;47.516;8.596;2022-08-01T05:55:45;6.75;;;2.92;;
61252;SDS011;47127;47.516;8.596;2022-08-01T05:58:10;4.45;;;2.72;;
61252;SDS011;47127;47.516;8.596;2022-08-01T06:00:36;4.30;;;2.92;;
61252;SDS011;47127;47.516;8.596;2022-08-01T06:03:02;4.75;;;2.80;;
61252;SDS011;47127;47.516;8.596;2022-08-01T06:05:27;4.85;;;2.67;;
61252;SDS011;47127;47.516;8.596;2022-08-01T06:07:53;9.57;;;2.72;;
61252;SDS011;47127;47.516;8.596;2022-08-01T06:10:19;3.80;;;2.42;;
61252;SDS011;47127;47.516;8.596;2022-08-01T06:12:44;7.75;;;2.83;;
61252;SDS011;47127;47.516;8.596;2022-08-01T06:15:10;4.38;;;2.50;;
61252;SDS011;47127;47.516;8.596;2022-08-01T06:17:36;8.48;;;2.85;;
61252;SDS011;47127;47.516;8.596;2022-08-01T06:20:02;4.25;;;2.53;;
61252;SDS011;47127;47.516;8.596;2022-08-01T06:22:28;5.18;;;2.63;;
61252;SDS011;47127;47.516;8.596;2022-08-01T06:24:54;7.35;;;2.90;;
61252;SDS011;47127;47.516;8.596;2022-08-01T06:27:19;7.05;;;2.50;;
61252;SDS011;47127;47.516;8.596;2022-08-01T06:29:45;5.35;;;2.47;;
61252;SDS011;47127;47.516;8.596;2022-08-01T06:32:11;7.40;;;2.70;;
61252;SDS011;47127;47.516;8.596;2022-08-01T06:34:36;4.40;;;2.42;;
61252;SDS011;47127;47.516;8.596;2022-08-01T06:37:02;3.70;;;2.60;;
61252;SDS011;47127;47.516;8.596;2022-08-01T06:39:28;4.50;;;2.63;;
61252;SDS011;47127;47.516;8.596;2022-08-01T06:41:53;6.60;;;3.45;;
61252;SDS011;47127;47.516;8.596;2022-08-01T06:44:19;4.15;;;3.00;;
61252;SDS011;47127;47.516;8.596;2022-08-01T06:46:44;5.97;;;2.50;;
61252;SDS011;47127;47.516;8.596;2022-08-01T06:49:10;4.45;;;2.80;;
61252;SDS011;47127;47.516;8.596;2022-08-01T06:51:35;3.65;;;2.55;;
61252;SDS011;47127;47.516;8.596;2022-08-01T06:54:01;5.97;;;2.65;;
61252;SDS011;47127;47.516;8.596;2022-08-01T06:56:26;4.80;;;2.58;;
61252;SDS011;47127;47.516;8.596;2022-08-01T06:58:52;4.40;;;2.40;;
61252;SDS011;47127;47.516;8.596;2022-08-01T07:01:21;6.05;;;3.00;;
61252;SDS011;47127;47.516;8.596;2022-08-01T07:03:46;6.43;;;2.75;;
61252;SDS011;47127;47.516;8.596;2022-08-01T07:06:12;4.97;;;2.00;;
61252;SDS011;47127;47.516;8.596;2022-08-01T07:08:39;4.95;;;2.40;;
61252;SDS011;47127;47.516;8.596;2022-08-01T07:11:05;3.55;;;2.40;;
61252;SDS011;47127;47.516;8.596;2022-08-01T07:13:31;4.35;;;2.58;;
61252;SDS011;47127;47.516;8.596;2022-08-01T07:15:57;5.05;;;2.45;;
61252;SDS011;47127;47.516;8.596;2022-08-01T07:18:23;4.07;;;2.40;;
61252;SDS011;47127;47.516;8.596;2022-08-01T07:20:49;4.50;;;2.30;;
61252;SDS011;47127;47.516;8.596;2022-08-01T07:23:15;4.70;;;2.55;;
61252;SDS011;47127;47.516;8.596;2022-08-01T07:25:42;3.08;;;2.15;;
61252;SDS011;47127;47.516;8.596;2022-08-01T07:28:07;4.03;;;2.40;;
61252;SDS011;47127;47.516;8.596;2022-08-01T07:30:33;4.28;;;2.35;;
61252;SDS011;47127;47.516;8.596;2022-08-01T07:32:59;2.42;;;1.75;;
61252;SDS011;47127;47.516;8.596;2022-08-01T07:35:25;4.75;;;2.60;;
61252;SDS011;47127;47.516;8.596;2022-08-01T07:37:50;4.97;;;2.55;;
61252;SDS011;47127;47.516;8.596;2022-08-01T07:40:18;5.20;;;2.45;;
61252;SDS011;47127;47.516;8.596;2022-08-01T07:42:44;5.78;;;2.92;;
61252;SDS011;47127;47.516;8.596;2022-08-01T07:45:10;4.95;;;2.30;;
61252;SDS011;47127;47.516;8.596;2022-08-01T07:47:36;5.72;;;2.72;;
61252;SDS011;47127;47.516;8.596;2022-08-01T07:50:03;3.90;;;2.20;;
61252;SDS011;47127;47.516;8.596;2022-08-01T07:52:29;3.80;;;2.25;;
61252;SDS011;47127;47.516;8.596;2022-08-01T07:54:55;2.95;;;2.13;;
61252;SDS011;47127;47.516;8.596;2022-08-01T07:57:22;3.47;;;2.25;;
61252;SDS011;47127;47.516;8.596;2022-08-01T07:59:48;4.22;;;2.50;;
61252;SDS011;47127;47.516;8.596;2022-08-01T08:02:14;3.10;;;2.03;;
61252;SDS011;47127;47.516;8.596;2022-08-01T08:04:40;6.15;;;2.63;;
61252;SDS011;47127;47.516;8.596;2022-08-01T08:07:06;5.05;;;2.42;;
61252;SDS011;47127;47.516;8.596;2022-08-01T08:09:31;3.63;;;2.20;;
61252;SDS011;47127;47.516;8.596;2022-08-01T08:11:57;6.30;;;2.40;;
61252;SDS011;47127;47.516;8.596;2022-08-01T08:14:23;8.45;;;2.97;;
61252;SDS011;47127;47.516;8.596;2022-08-01T08:16:49;3.42;;;2.50;;
61252;SDS011;47127;47.516;8.596;2022-08-01T08:19:15;7.10;;;2.72;;
61252;SDS011;47127;47.516;8.596;2022-08-01T08:21:40;3.58;;;2.50;;
61252;SDS011;47127;47.516;8.596;2022-08-01T08:24:07;5.28;;;2.55;;
61252;SDS011;47127;47.516;8.596;2022-08-01T08:26:50;5.22;;;2.22;;
61252;SDS011;47127;47.516;8.596;2022-08-01T08:29:18;3.80;;;2.20;;
61252;SDS011;47127;47.516;8.596;2022-08-01T08:31:44;5.57;;;2.30;;
61252;SDS011;47127;47.516;8.596;2022-08-01T08:34:10;3.17;;;2.30;;
61252;SDS011;47127;47.516;8.596;2022-08-01T08:36:36;3.35;;;2.28;;
61252;SDS011;47127;47.516;8.596;2022-08-01T08:39:02;4.13;;;2.50;;
61252;SDS011;47127;47.516;8.596;2022-08-01T08:41:31;4.95;;;2.80;;
61252;SDS011;47127;47.516;8.596;2022-08-01T08:43:58;4.68;;;2.75;;
61252;SDS011;47127;47.516;8.596;2022-08-01T08:46:25;6.07;;;2.20;;
61252;SDS011;47127;47.516;8.596;2022-08-01T08:48:52;5.03;;;2.13;;
61252;SDS011;47127;47.516;8.596;2022-08-01T08:51:18;2.65;;;2.00;;
61252;SDS011;47127;47.516;8.596;2022-08-01T08:53:44;6.80;;;2.88;;
61252;SDS011;47127;47.516;8.596;2022-08-01T08:56:12;4.07;;;2.30;;
61252;SDS011;47127;47.516;8.596;2022-08-01T08:58:40;4.45;;;2.05;;
61252;SDS011;47127;47.516;8.596;2022-08-01T09:01:07;3.58;;;2.10;;
61252;SDS011;47127;47.516;8.596;2022-08-01T09:03:34;3.17;;;2.00;;
61252;SDS011;47127;47.516;8.596;2022-08-01T09:06:00;4.72;;;2.05;;
61252;SDS011;47127;47.516;8.596;2022-08-01T09:08:25;2.70;;;1.92;;
61252;SDS011;47127;47.516;8.596;2022-08-01T09:10:51;4.63;;;2.22;;
61252;SDS011;47127;47.516;8.596;2022-08-01T09:13:17;3.35;;;2.25;;
61252;SDS011;47127;47.516;8.596;2022-08-01T09:15:47;3.67;;;2.00;;
61252;SDS011;47127;47.516;8.596;2022-08-01T09:21:09;5.15;;;2.55;;
61252;SDS011;47127;47.516;8.596;2022-08-01T09:23:41;5.35;;;1.88;;
61252;SDS011;47127;47.516;8.596;2022-08-01T09:26:09;3.78;;;1.63;;
61252;SDS011;47127;47.516;8.596;2022-08-01T09:28:35;3.95;;;2.10;;
61252;SDS011;47127;47.516;8.596;2022-08-01T09:31:08;3.40;;;1.90;;
61252;SDS011;47127;47.516;8.596;2022-08-01T09:37:04;4.25;;;2.08;;
61252;SDS011;47127;47.516;8.596;2022-08-01T09:39:19;5.88;;;2.03;;
61252;SDS011;47127;47.516;8.596;2022-08-01T09:41:46;5.00;;;1.77;;
61252;SDS011;47127;47.516;8.596;2022-08-01T09:44:13;3.88;;;1.67;;
61252;SDS011;47127;47.516;8.596;2022-08-01T09:49:36;2.60;;;1.70;;
61252;SDS011;47127;47.516;8.596;2022-08-01T09:52:13;2.65;;;1.20;;
61252;SDS011;47127;47.516;8.596;2022-08-01T09:54:40;6.55;;;1.70;;
61252;SDS011;47127;47.516;8.596;2022-08-01T09:59:38;3.72;;;1.83;;
61252;SDS011;47127;47.516;8.596;2022-08-01T10:02:07;3.00;;;1.60;;
61252;SDS011;47127;47.516;8.596;2022-08-01T10:04:36;3.25;;;2.10;;
61252;SDS011;47127;47.516;8.596;2022-08-01T10:07:06;4.45;;;2.05;;
61252;SDS011;47127;47.516;8.596;2022-08-01T10:09:33;3.13;;;2.03;;
61252;SDS011;47127;47.516;8.596;2022-08-01T10:12:00;3.70;;;1.90;;
61252;SDS011;47127;47.516;8.596;2022-08-01T10:14:26;3.05;;;1.63;;
61252;SDS011;47127;47.516;8.596;2022-08-01T10:16:55;3.70;;;1.98;;
61252;SDS011;47127;47.516;8.596;2022-08-01T10:19:23;4.05;;;2.00;;
61252;SDS011;47127;47.516;8.596;2022-08-01T10:21:51;3.20;;;1.95;;
61252;SDS011;47127;47.516;8.596;2022-08-01T10:24:22;2.72;;;1.80;;
61252;SDS011;47127;47.516;8.596;2022-08-01T10:26:50;7.25;;;2.50;;
61252;SDS011;47127;47.516;8.596;2022-08-01T10:29:20;6.25;;;2.08;;
61252;SDS011;47127;47.516;8.596;2022-08-01T10:31:47;3.10;;;2.10;;
61252;SDS011;47127;47.516;8.596;2022-08-01T10:34:13;2.78;;;1.67;;
61252;SDS011;47127;47.516;8.596;2022-08-01T10:36:42;3.60;;;1.90;;
61252;SDS011;47127;47.516;8.596;2022-08-01T10:39:12;2.30;;;1.60;;
61252;SDS011;47127;47.516;8.596;2022-08-01T10:41:38;2.28;;;1.70;;
61252;SDS011;47127;47.516;8.596;2022-08-01T10:44:06;4.18;;;1.75;;
61252;SDS011;47127;47.516;8.596;2022-08-01T10:46:34;5.07;;;1.77;;
61252;SDS011;47127;47.516;8.596;2022-08-01T10:49:03;2.17;;;1.45;;
61252;SDS011;47127;47.516;8.596;2022-08-01T10:51:34;4.32;;;2.15;;
61252;SDS011;47127;47.516;8.596;2022-08-01T10:54:04;3.72;;;1.73;;
61252;SDS011;47127;47.516;8.596;2022-08-01T10:56:38;4.07;;;1.75;;
61252;SDS011;47127;47.516;8.596;2022-08-01T10:59:07;2.60;;;1.60;;
61252;SDS011;47127;47.516;8.596;2022-08-01T11:01:33;1.38;;;1.20;;
61252;SDS011;47127;47.516;8.596;2022-08-01T11:04:11;7.15;;;2.08;;
61252;SDS011;47127;47.516;8.596;2022-08-01T11:12:12;3.40;;;1.40;;
61252;SDS011;47127;47.516;8.596;2022-08-01T11:14:33;2.65;;;1.63;;
61252;SDS011;47127;47.516;8.596;2022-08-01T11:20:07;2.13;;;1.48;;
61252;SDS011;47127;47.516;8.596;2022-08-01T11:30:45;4.85;;;1.77;;
61252;SDS011;47127;47.516;8.596;2022-08-01T11:33:16;2.85;;;1.35;;
61252;SDS011;47127;47.516;8.596;2022-08-01T11:38:47;2.08;;;1.60;;
61252;SDS011;47127;47.516;8.596;2022-08-01T11:41:16;1.92;;;1.30;;
61252;SDS011;47127;47.516;8.596;2022-08-01T11:54:33;3.92;;;1.60;;
61252;SDS011;47127;47.516;8.596;2022-08-01T11:57:02;2.50;;;1.30;;
61252;SDS011;47127;47.516;8.596;2022-08-01T11:59:34;1.95;;;1.10;;
61252;SDS011;47127;47.516;8.596;2022-08-01T12:02:02;4.00;;;1.20;;
61252;SDS011;47127;47.516;8.596;2022-08-01T12:04:44;1.65;;;1.20;;
61252;SDS011;47127;47.516;8.596;2022-08-01T12:07:14;2.22;;;1.20;;
61252;SDS011;47127;47.516;8.596;2022-08-01T12:09:39;1.65;;;1.10;;
61252;SDS011;47127;47.516;8.596;2022-08-01T12:12:05;1.80;;;1.00;;
61252;SDS011;47127;47.516;8.596;2022-08-01T12:14:31;1.33;;;1.00;;
61252;SDS011;47127;47.516;8.596;2022-08-01T12:16:57;1.15;;;0.90;;
61252;SDS011;47127;47.516;8.596;2022-08-01T12:19:23;2.88;;;1.00;;
61252;SDS011;47127;47.516;8.596;2022-08-01T12:22:05;3.45;;;1.15;;
61252;SDS011;47127;47.516;8.596;2022-08-01T12:24:32;2.65;;;1.17;;
61252;SDS011;47127;47.516;8.596;2022-08-01T12:26:58;3.00;;;1.17;;
61252;SDS011;47127;47.516;8.596;2022-08-01T12:29:31;2.95;;;1.10;;
61252;SDS011;47127;47.516;8.596;2022-08-01T12:32:04;1.38;;;0.90;;
61252;SDS011;47127;47.516;8.596;2022-08-01T12:34:50;1.17;;;1.08;;
61252;SDS011;47127;47.516;8.596;2022-08-01T12:37:17;1.13;;;0.90;;
61252;SDS011;47127;47.516;8.596;2022-08-01T12:39:44;1.65;;;0.93;;
61252;SDS011;47127;47.516;8.596;2022-08-01T12:42:10;1.73;;;1.20;;
61252;SDS011;47127;47.516;8.596;2022-08-01T12:44:37;3.00;;;1.33;;
61252;SDS011;47127;47.516;8.596;2022-08-01T12:47:05;2.75;;;1.17;;
61252;SDS011;47127;47.516;8.596;2022-08-01T12:49:35;1.83;;;1.00;;
61252;SDS011;47127;47.516;8.596;2022-08-01T12:52:01;3.45;;;1.10;;
61252;SDS011;47127;47.516;8.596;2022-08-01T12:54:28;1.52;;;1.13;;
61252;SDS011;47127;47.516;8.596;2022-08-01T12:56:53;1.98;;;1.20;;
61252;SDS011;47127;47.516;8.596;2022-08-01T12:59:26;3.35;;;1.25;;
61252;SDS011;47127;47.516;8.596;2022-08-01T13:01:56;1.85;;;1.10;;
61252;SDS011;47127;47.516;8.596;2022-08-01T13:04:33;3.47;;;1.02;;
61252;SDS011;47127;47.516;8.596;2022-08-01T13:07:16;2.92;;;1.40;;
61252;SDS011;47127;47.516;8.596;2022-08-01T13:09:51;3.63;;;1.45;;
61252;SDS011;47127;47.516;8.596;2022-08-01T13:12:17;1.90;;;1.30;;
61252;SDS011;47127;47.516;8.596;2022-08-01T13:14:42;2.72;;;1.30;;
61252;SDS011;47127;47.516;8.596;2022-08-01T13:17:08;2.17;;;1.10;;
61252;SDS011;47127;47.516;8.596;2022-08-01T13:19:43;5.78;;;1.55;;
61252;SDS011;47127;47.516;8.596;2022-08-01T13:22:10;1.85;;;1.05;;
61252;SDS011;47127;47.516;8.596;2022-08-01T13:24:35;1.35;;;0.90;;
61252;SDS011;47127;47.516;8.596;2022-08-01T13:27:02;3.33;;;0.82;;
61252;SDS011;47127;47.516;8.596;2022-08-01T13:29:32;2.72;;;1.00;;
61252;SDS011;47127;47.516;8.596;2022-08-01T13:32:00;1.25;;;0.80;;
61252;SDS011;47127;47.516;8.596;2022-08-01T13:34:36;2.35;;;1.05;;
61252;SDS011;47127;47.516;8.596;2022-08-01T13:37:02;1.98;;;1.33;;
61252;SDS011;47127;47.516;8.596;2022-08-01T13:39:28;6.25;;;1.30;;
61252;SDS011;47127;47.516;8.596;2022-08-01T13:42:09;1.70;;;0.73;;
61252;SDS011;47127;47.516;8.596;2022-08-01T13:44:39;2.95;;;0.80;;
61252;SDS011;47127;47.516;8.596;2022-08-01T13:47:06;6.28;;;1.23;;
61252;SDS011;47127;47.516;8.596;2022-08-01T13:49:32;0.40;;;0.40;;
61252;SDS011;47127;47.516;8.596;2022-08-01T13:51:58;1.75;;;0.70;;
61252;SDS011;47127;47.516;8.596;2022-08-01T13:54:24;1.20;;;0.60;;
61252;SDS011;47127;47.516;8.596;2022-08-01T13:56:50;0.73;;;0.50;;
61252;SDS011;47127;47.516;8.596;2022-08-01T13:59:16;1.60;;;0.90;;
61252;SDS011;47127;47.516;8.596;2022-08-01T14:01:42;1.35;;;0.55;;
61252;SDS011;47127;47.516;8.596;2022-08-01T14:04:08;1.60;;;0.60;;
61252;SDS011;47127;47.516;8.596;2022-08-01T14:06:33;1.98;;;0.68;;
61252;SDS011;47127;47.516;8.596;2022-08-01T14:09:00;1.17;;;0.50;;
61252;SDS011;47127;47.516;8.596;2022-08-01T14:11:26;2.47;;;0.80;;
61252;SDS011;47127;47.516;8.596;2022-08-01T14:13:52;1.40;;;0.60;;
61252;SDS011;47127;47.516;8.596;2022-08-01T14:16:17;2.60;;;0.65;;
61252;SDS011;47127;47.516;8.596;2022-08-01T14:18:43;0.95;;;0.57;;
61252;SDS011;47127;47.516;8.596;2022-08-01T14:21:08;3.80;;;0.90;;
61252;SDS011;47127;47.516;8.596;2022-08-01T14:23:34;3.50;;;0.60;;
61252;SDS011;47127;47.516;8.596;2022-08-01T14:25:59;1.27;;;0.60;;
61252;SDS011;47127;47.516;8.596;2022-08-01T14:28:25;2.13;;;0.80;;
61252;SDS011;47127;47.516;8.596;2022-08-01T14:30:52;1.80;;;0.60;;
61252;SDS011;47127;47.516;8.596;2022-08-01T14:33:20;3.08;;;0.88;;
61252;SDS011;47127;47.516;8.596;2022-08-01T14:35:46;1.67;;;0.60;;
61252;SDS011;47127;47.516;8.596;2022-08-01T14:38:11;0.98;;;0.60;;
61252;SDS011;47127;47.516;8.596;2022-08-01T14:40:37;1.52;;;0.70;;
61252;SDS011;47127;47.516;8.596;2022-08-01T14:43:03;1.75;;;0.50;;
61252;SDS011;47127;47.516;8.596;2022-08-01T14:45:28;3.10;;;0.80;;
61252;SDS011;47127;47.516;8.596;2022-08-01T14:47:54;1.13;;;0.60;;
61252;SDS011;47127;47.516;8.596;2022-08-01T14:50:20;2.03;;;0.60;;
61252;SDS011;47127;47.516;8.596;2022-08-01T14:52:45;1.73;;;0.70;;
61252;SDS011;47127;47.516;8.596;2022-08-01T14:55:11;4.70;;;1.20;;
61252;SDS011;47127;47.516;8.596;2022-08-01T14:57:38;1.40;;;0.93;;
61252;SDS011;47127;47.516;8.596;2022-08-01T15:00:05;5.50;;;1.38;;
61252;SDS011;47127;47.516;8.596;2022-08-01T15:02:35;7.15;;;1.70;;
61252;SDS011;47127;47.516;8.596;2022-08-01T15:05:01;1.65;;;1.10;;
61252;SDS011;47127;47.516;8.596;2022-08-01T15:07:27;5.88;;;1.58;;
61252;SDS011;47127;47.516;8.596;2022-08-01T15:09:52;5.85;;;1.35;;
61252;SDS011;47127;47.516;8.596;2022-08-01T15:12:18;2.42;;;0.90;;
61252;SDS011;47127;47.516;8.596;2022-08-01T15:14:44;1.00;;;0.60;;
61252;SDS011;47127;47.516;8.596;2022-08-01T15:17:12;1.40;;;0.90;;
61252;SDS011;47127;47.516;8.596;2022-08-01T15:19:41;4.30;;;1.35;;
61252;SDS011;47127;47.516;8.596;2022-08-01T15:22:07;2.03;;;0.80;;
61252;SDS011;47127;47.516;8.596;2022-08-01T15:24:33;2.13;;;1.05;;
61252;SDS011;47127;47.516;8.596;2022-08-01T15:26:59;2.72;;;0.80;;
61252;SDS011;47127;47.516;8.596;2022-08-01T15:29:24;3.22;;;0.90;;
61252;SDS011;47127;47.516;8.596;2022-08-01T15:31:50;8.05;;;1.98;;
61252;SDS011;47127;47.516;8.596;2022-08-01T15:34:16;1.65;;;0.93;;
61252;SDS011;47127;47.516;8.596;2022-08-01T15:36:42;2.13;;;0.90;;
61252;SDS011;47127;47.516;8.596;2022-08-01T15:39:08;1.25;;;0.88;;
61252;SDS011;47127;47.516;8.596;2022-08-01T15:41:34;9.50;;;2.40;;
61252;SDS011;47127;47.516;8.596;2022-08-01T15:44:00;1.98;;;0.98;;
61252;SDS011;47127;47.516;8.596;2022-08-01T15:46:25;2.20;;;1.30;;